Time;durP1;ratioP1;P1;durP2;ratioP2;P2;SDS_P1;SDS_P2;PMS_P1;PMS_P2;Temp;Humidity;BMP_temperature;BMP_pressure;BME280_temperature;BME280_humidity;BME280_pressure;Samples;Min_cycle;Max_cycle;Signal;HPM_P1;HPM_P2
2021/08/22 00:01:11;;;;;;;8.33;4.73;;;18.70;99.90;;;;;;5067296;28;20449;-83
2021/08/22 00:03:40;;;;;;;5.43;4.30;;;18.60;99.90;;;;;;5064157;28;20782;-84
2021/08/22 00:06:07;;;;;;;5.77;4.97;;;18.50;99.90;;;;;;5066431;28;20969;-83
2021/08/22 00:08:34;;;;;;;5.37;4.27;;;18.50;99.90;;;;;;5064743;28;20481;-83
2021/08/22 00:11:00;;;;;;;5.43;4.43;;;18.50;99.90;;;;;;5064132;28;20472;-83
2021/08/22 00:13:28;;;;;;;7.40;4.10;;;18.40;99.90;;;;;;5063872;28;21069;-85
2021/08/22 00:15:55;;;;;;;3.83;3.53;;;18.40;99.90;;;;;;5065093;28;20461;-83
2021/08/22 00:18:22;;;;;;;5.87;3.77;;;18.30;99.90;;;;;;5065537;28;20440;-86
2021/08/22 00:20:50;;;;;;;3.80;3.40;;;18.20;99.90;;;;;;5073162;28;20453;-85
2021/08/22 00:23:17;;;;;;;3.60;3.00;;;18.20;99.90;;;;;;5075496;28;20445;-86
2021/08/22 00:25:44;;;;;;;3.60;3.27;;;18.10;99.90;;;;;;5077064;28;20477;-88
2021/08/22 00:28:11;;;;;;;3.47;3.17;;;18.00;99.90;;;;;;5078192;28;20463;-88
2021/08/22 00:30:38;;;;;;;3.30;3.00;;;18.00;99.90;;;;;;5077684;28;20479;-83
2021/08/22 00:33:05;;;;;;;3.30;2.90;;;18.00;99.90;;;;;;5076337;28;20480;-84
2021/08/22 00:35:32;;;;;;;3.20;2.90;;;18.00;99.90;;;;;;5075602;28;20477;-86
2021/08/22 00:38:01;;;;;;;4.60;3.60;;;18.00;99.90;;;;;;5075077;28;20476;-84
2021/08/22 00:40:28;;;;;;;7.37;3.60;;;18.00;99.90;;;;;;5072467;28;20441;-83
2021/08/22 00:42:55;;;;;;;4.27;3.77;;;18.00;99.90;;;;;;5072699;28;20453;-82
2021/08/22 00:45:22;;;;;;;5.30;4.10;;;18.00;99.90;;;;;;5071637;28;20457;-83
2021/08/22 00:47:50;;;;;;;3.90;3.50;;;18.00;99.90;;;;;;5072180;28;20444;-82
2021/08/22 00:50:18;;;;;;;4.10;3.00;;;18.00;99.90;;;;;;5077081;28;20433;-85
2021/08/22 00:52:45;;;;;;;3.80;2.87;;;17.90;99.90;;;;;;5077491;28;20495;-86
2021/08/22 00:55:13;;;;;;;3.97;3.30;;;17.90;99.90;;;;;;5077474;28;20464;-87
2021/08/22 00:57:40;;;;;;;2.70;2.50;;;17.80;99.90;;;;;;5077851;28;20456;-85
2021/08/22 01:00:09;;;;;;;3.50;2.87;;;17.90;99.90;;;;;;5077601;28;20447;-87
2021/08/22 01:02:43;;;;;;;4.70;2.40;;;17.90;99.90;;;;;;5077356;28;20437;-82
2021/08/22 01:05:19;;;;;;;3.73;2.40;;;17.80;99.90;;;;;;5076875;28;20460;-88
2021/08/22 01:07:50;;;;;;;3.93;2.73;;;17.80;99.90;;;;;;5077392;28;20507;-86
2021/08/22 01:10:24;;;;;;;4.13;2.80;;;17.80;99.90;;;;;;5076795;28;20437;-83
2021/08/22 01:13:00;;;;;;;3.13;2.73;;;17.80;99.90;;;;;;5077459;28;20472;-85
2021/08/22 01:15:28;;;;;;;2.90;2.60;;;17.80;99.90;;;;;;5077430;28;20494;-86
2021/08/22 01:17:55;;;;;;;4.17;2.70;;;17.70;99.90;;;;;;5077303;28;20487;-83
2021/08/22 01:20:34;;;;;;;4.43;2.40;;;17.70;99.90;;;;;;5073365;28;20464;-83
2021/08/22 01:23:02;;;;;;;3.17;2.73;;;17.70;99.90;;;;;;5069561;28;20516;-83
2021/08/22 01:25:32;;;;;;;3.57;2.50;;;17.70;99.90;;;;;;5072966;28;20480;-83
2021/08/22 01:28:00;;;;;;;3.10;2.80;;;17.70;99.90;;;;;;5074346;28;20539;-81
2021/08/22 01:30:28;;;;;;;4.63;3.30;;;17.70;99.90;;;;;;5074778;28;20472;-83
2021/08/22 01:32:56;;;;;;;3.80;3.30;;;17.70;99.90;;;;;;5069389;28;20444;-83
2021/08/22 01:35:24;;;;;;;4.27;3.53;;;17.70;99.90;;;;;;5069509;28;20487;-83
2021/08/22 01:37:53;;;;;;;3.60;2.93;;;17.70;99.90;;;;;;5064523;28;20452;-81
2021/08/22 01:40:23;;;;;;;3.53;2.93;;;17.70;99.90;;;;;;5068460;28;20481;-83
2021/08/22 01:42:50;;;;;;;8.83;3.00;;;17.70;99.90;;;;;;5073918;28;20511;-83
2021/08/22 01:45:20;;;;;;;2.77;2.57;;;17.70;99.90;;;;;;5072999;28;20988;-83
2021/08/22 01:47:48;;;;;;;4.00;2.90;;;17.70;99.90;;;;;;5073908;28;20459;-81
2021/08/22 01:50:19;;;;;;;3.43;3.13;;;17.70;99.90;;;;;;5076381;28;20445;-81
2021/08/22 01:52:48;;;;;;;3.67;3.33;;;17.60;99.90;;;;;;5076366;28;20496;-83
2021/08/22 01:55:14;;;;;;;3.90;2.87;;;17.70;99.90;;;;;;5076139;28;20556;-84
2021/08/22 01:57:44;;;;;;;3.17;2.87;;;17.70;99.90;;;;;;5076843;28;20431;-82
2021/08/22 02:00:13;;;;;;;3.00;2.70;;;17.70;99.90;;;;;;5072622;28;20445;-80
2021/08/22 02:02:43;;;;;;;4.33;3.10;;;17.60;99.90;;;;;;5073485;28;20495;-81
2021/08/22 02:05:13;;;;;;;3.40;2.93;;;17.60;99.90;;;;;;5072884;28;20480;-81
2021/08/22 02:07:41;;;;;;;3.03;2.73;;;17.60;99.90;;;;;;5074238;28;20423;-81
2021/08/22 02:10:12;;;;;;;3.63;3.33;;;17.60;99.90;;;;;;5071684;28;20428;-79
2021/08/22 02:12:40;;;;;;;4.23;3.83;;;17.70;99.90;;;;;;5079488;28;20459;-85
2021/08/22 02:15:12;;;;;;;3.43;3.17;;;17.70;99.90;;;;;;5078446;28;20475;-82
2021/08/22 02:17:43;;;;;;;4.90;3.50;;;17.70;99.90;;;;;;5076638;28;20441;-80
2021/08/22 02:20:10;;;;;;;3.70;3.23;;;17.80;99.90;;;;;;5078199;28;20466;-82
2021/08/22 02:22:41;;;;;;;4.20;3.60;;;17.80;99.90;;;;;;5074835;28;20420;-79
2021/08/22 02:25:11;;;;;;;3.77;3.00;;;17.90;99.90;;;;;;5067221;28;20481;-80
2021/08/22 02:27:38;;;;;;;7.73;3.30;;;17.80;99.90;;;;;;5067327;28;20476;-80
2021/08/22 02:30:07;;;;;;;4.73;3.03;;;17.80;99.90;;;;;;5067343;28;20508;-79
2021/08/22 02:32:34;;;;;;;2.93;2.73;;;17.80;99.90;;;;;;5067238;28;20457;-80
2021/08/22 02:35:01;;;;;;;4.50;2.70;;;17.70;99.90;;;;;;5068691;28;20885;-81
2021/08/22 02:37:29;;;;;;;5.90;3.57;;;17.70;99.90;;;;;;5065411;28;20459;-79
2021/08/22 02:39:57;;;;;;;4.00;3.23;;;17.80;99.90;;;;;;5066092;28;20563;-80
2021/08/22 02:42:25;;;;;;;4.20;3.23;;;17.80;99.90;;;;;;5063440;28;20484;-81
2021/08/22 02:44:52;;;;;;;3.80;3.40;;;17.80;99.90;;;;;;5066028;28;20514;-80
2021/08/22 02:47:19;;;;;;;10.23;3.40;;;17.80;99.90;;;;;;5066478;28;20450;-81
2021/08/22 02:49:46;;;;;;;6.63;3.17;;;17.80;99.90;;;;;;5071236;28;20559;-80
2021/08/22 02:52:13;;;;;;;3.73;3.20;;;17.80;99.90;;;;;;5077567;28;20469;-83
2021/08/22 02:54:40;;;;;;;3.30;3.07;;;17.80;99.90;;;;;;5079176;28;20480;-82
2021/08/22 02:57:07;;;;;;;3.50;3.10;;;17.80;99.90;;;;;;5078784;28;20421;-84
2021/08/22 02:59:36;;;;;;;3.17;2.87;;;17.70;99.90;;;;;;5078482;28;20441;-84
2021/08/22 03:02:03;;;;;;;3.80;3.50;;;17.60;99.90;;;;;;5077746;28;20423;-79
2021/08/22 03:04:29;;;;;;;3.83;3.20;;;17.60;99.90;;;;;;5063414;28;20451;-82
2021/08/22 03:06:56;;;;;;;3.90;3.10;;;17.60;99.90;;;;;;5063372;28;20472;-80
2021/08/22 03:09:23;;;;;;;4.43;2.90;;;17.50;99.90;;;;;;5067744;28;20525;-79
2021/08/22 03:11:50;;;;;;;4.10;3.40;;;17.50;99.90;;;;;;5061137;28;20453;-79
2021/08/22 03:14:17;;;;;;;4.53;3.17;;;17.50;99.90;;;;;;5062620;28;20499;-79
2021/08/22 03:16:46;;;;;;;4.03;3.60;;;17.50;99.90;;;;;;5060488;28;20445;-82
2021/08/22 03:19:13;;;;;;;5.10;3.87;;;17.50;99.90;;;;;;5061243;28;20503;-81
2021/08/22 03:21:41;;;;;;;4.20;3.07;;;17.40;99.90;;;;;;5063767;28;20473;-82
2021/08/22 03:24:09;;;;;;;3.53;2.90;;;17.40;99.90;;;;;;5062205;28;20965;-80
2021/08/22 03:26:36;;;;;;;3.50;3.17;;;17.30;99.90;;;;;;5077072;28;20448;-86
2021/08/22 03:29:02;;;;;;;4.37;3.50;;;17.40;99.90;;;;;;5074135;28;20456;-82
2021/08/22 03:31:29;;;;;;;4.43;3.60;;;17.30;99.90;;;;;;5078754;28;20448;-84
2021/08/22 03:33:58;;;;;;;3.53;3.23;;;17.30;99.90;;;;;;5076409;28;20509;-82
2021/08/22 03:36:27;;;;;;;5.77;3.73;;;17.30;99.90;;;;;;5071274;28;20439;-81
2021/08/22 03:38:54;;;;;;;4.00;3.07;;;17.30;99.90;;;;;;5071906;28;20505;-82
2021/08/22 03:41:21;;;;;;;6.90;3.97;;;17.30;99.90;;;;;;5071392;28;20460;-83
2021/08/22 03:43:48;;;;;;;3.43;3.13;;;17.30;99.90;;;;;;5064945;28;20441;-81
2021/08/22 03:46:15;;;;;;;3.87;3.57;;;17.30;99.90;;;;;;5068554;28;20453;-80
2021/08/22 03:48:42;;;;;;;4.00;3.70;;;17.30;99.90;;;;;;5067305;28;20507;-80
2021/08/22 03:51:11;;;;;;;5.03;4.27;;;17.20;99.90;;;;;;5067578;28;20453;-80
2021/08/22 03:53:38;;;;;;;3.93;3.63;;;17.20;99.90;;;;;;5065062;28;20480;-79
2021/08/22 03:56:05;;;;;;;3.70;3.23;;;17.30;99.90;;;;;;5076797;28;20450;-82
2021/08/22 03:58:32;;;;;;;4.60;3.70;;;17.20;99.90;;;;;;5077924;28;20437;-85
2021/08/22 04:01:00;;;;;;;3.70;3.30;;;17.20;99.90;;;;;;5078138;28;20471;-83
2021/08/22 04:03:29;;;;;;;6.93;4.23;;;17.20;99.90;;;;;;5075897;28;20463;-80
2021/08/22 04:05:56;;;;;;;6.47;3.97;;;17.30;99.90;;;;;;5073088;28;21019;-79
2021/08/22 04:08:25;;;;;;;4.33;3.60;;;17.30;99.90;;;;;;5064528;28;20465;-80
2021/08/22 04:10:53;;;;;;;4.03;3.73;;;17.40;99.90;;;;;;5062208;28;20472;-80
2021/08/22 04:13:20;;;;;;;4.40;4.00;;;17.40;99.90;;;;;;5062369;28;20477;-81
2021/08/22 04:15:49;;;;;;;4.20;3.80;;;17.50;99.90;;;;;;5060172;28;20488;-79
2021/08/22 04:18:16;;;;;;;4.10;3.40;;;17.60;99.90;;;;;;5064615;28;20522;-81
2021/08/22 04:20:43;;;;;;;3.53;3.23;;;17.70;99.90;;;;;;5063880;28;20441;-80
2021/08/22 04:23:11;;;;;;;4.67;3.90;;;17.70;99.90;;;;;;5067250;28;20437;-81
2021/08/22 04:25:42;;;;;;;5.17;4.23;;;17.70;99.90;;;;;;5076929;28;20477;-83
2021/08/22 04:28:09;;;;;;;3.83;3.53;;;17.70;99.90;;;;;;5073468;28;20488;-82
2021/08/22 04:30:35;;;;;;;3.73;3.13;;;17.80;99.90;;;;;;5063162;28;20880;-80
2021/08/22 04:33:02;;;;;;;4.47;4.03;;;17.80;99.90;;;;;;5063040;28;21009;-80
2021/08/22 04:35:30;;;;;;;3.77;3.40;;;17.80;99.90;;;;;;5066638;28;20449;-83
2021/08/22 04:37:57;;;;;;;4.43;3.53;;;17.80;99.90;;;;;;5072032;28;20468;-80
2021/08/22 04:40:25;;;;;;;5.80;3.77;;;17.80;99.90;;;;;;5063153;28;20528;-80
2021/08/22 04:42:53;;;;;;;5.10;3.83;;;17.90;99.90;;;;;;5063561;28;20461;-79
2021/08/22 04:45:20;;;;;;;5.27;4.13;;;17.90;99.90;;;;;;5072824;28;20473;-83
2021/08/22 04:47:47;;;;;;;4.00;3.63;;;17.90;99.90;;;;;;5070618;28;20448;-81
2021/08/22 04:50:14;;;;;;;6.87;3.90;;;17.90;99.90;;;;;;5066711;28;20857;-81
2021/08/22 04:52:41;;;;;;;4.23;3.70;;;17.90;99.90;;;;;;5066259;28;20502;-80
2021/08/22 04:55:09;;;;;;;4.77;4.27;;;17.90;99.90;;;;;;5073065;28;20501;-79
2021/08/22 04:57:36;;;;;;;9.10;4.40;;;17.90;99.90;;;;;;5067344;28;20489;-81
2021/08/22 05:00:05;;;;;;;4.30;3.90;;;17.90;99.90;;;;;;5065004;28;20541;-81
2021/08/22 05:02:32;;;;;;;4.23;3.83;;;18.00;99.90;;;;;;5067239;28;20543;-80
2021/08/22 05:04:59;;;;;;;6.80;4.50;;;18.00;99.90;;;;;;5069931;28;20499;-79
2021/08/22 05:07:26;;;;;;;4.10;3.70;;;18.10;99.90;;;;;;5068074;28;20456;-79
2021/08/22 05:09:54;;;;;;;5.17;4.67;;;18.10;99.90;;;;;;5070563;28;20445;-82
2021/08/22 05:12:21;;;;;;;4.83;4.33;;;18.20;99.90;;;;;;5069582;28;20442;-83
2021/08/22 05:14:48;;;;;;;4.90;4.17;;;18.20;99.90;;;;;;5074786;28;20496;-81
2021/08/22 05:17:16;;;;;;;4.93;4.17;;;18.20;99.90;;;;;;5075988;28;20438;-80
2021/08/22 05:19:43;;;;;;;4.30;3.90;;;18.20;99.90;;;;;;5073851;28;20432;-81
2021/08/22 05:22:10;;;;;;;4.93;3.90;;;18.30;99.90;;;;;;5075140;28;20445;-80
2021/08/22 05:24:37;;;;;;;4.43;3.80;;;18.30;99.90;;;;;;5061149;28;20523;-79
2021/08/22 05:27:04;;;;;;;6.10;4.57;;;18.30;99.90;;;;;;5063501;28;20482;-82
2021/08/22 05:29:31;;;;;;;4.97;3.93;;;18.40;99.90;;;;;;5064136;28;20469;-79
2021/08/22 05:32:00;;;;;;;5.47;3.90;;;18.40;99.90;;;;;;5062845;28;20428;-79
2021/08/22 05:34:28;;;;;;;4.77;4.20;;;18.40;99.90;;;;;;5068611;28;20492;-80
2021/08/22 05:36:55;;;;;;;7.27;4.83;;;18.40;99.90;;;;;;5080252;28;20480;-84
2021/08/22 05:39:22;;;;;;;5.67;4.93;;;18.40;99.90;;;;;;5080032;28;20450;-83
2021/08/22 05:41:49;;;;;;;5.03;4.43;;;18.40;99.90;;;;;;5069021;28;20449;-80
2021/08/22 05:44:16;;;;;;;4.90;4.47;;;18.50;99.90;;;;;;5075372;28;20534;-82
2021/08/22 05:46:43;;;;;;;10.00;4.60;;;18.50;99.90;;;;;;5075161;28;20457;-80
2021/08/22 05:49:10;;;;;;;5.30;4.80;;;18.50;99.90;;;;;;5078547;28;20501;-85
2021/08/22 05:51:40;;;;;;;7.37;4.70;;;18.50;99.90;;;;;;5078077;28;20462;-79
2021/08/22 05:54:07;;;;;;;5.37;4.67;;;18.50;99.90;;;;;;5065918;28;20515;-80
2021/08/22 05:56:34;;;;;;;5.37;4.57;;;18.60;99.90;;;;;;5068001;28;20453;-80
2021/08/22 05:59:01;;;;;;;4.47;4.00;;;18.70;99.90;;;;;;5067289;28;20914;-80
2021/08/22 06:01:28;;;;;;;4.73;4.27;;;18.70;99.90;;;;;;5065311;28;20457;-80
2021/08/22 06:03:55;;;;;;;5.07;4.57;;;18.80;99.90;;;;;;5063465;28;20482;-80
2021/08/22 06:06:22;;;;;;;4.97;4.47;;;18.90;99.90;;;;;;5067195;28;20480;-82
2021/08/22 06:08:50;;;;;;;5.10;4.60;;;18.90;99.90;;;;;;5077837;28;20437;-83
2021/08/22 06:11:17;;;;;;;6.30;4.53;;;19.00;99.90;;;;;;5079855;28;20476;-80
2021/08/22 06:13:44;;;;;;;5.70;5.10;;;19.10;99.90;;;;;;5076367;28;20557;-79
2021/08/22 06:16:11;;;;;;;5.73;4.37;;;19.20;99.90;;;;;;5067191;28;20447;-79
2021/08/22 06:18:38;;;;;;;4.47;4.07;;;19.30;99.90;;;;;;5067813;28;20531;-79
2021/08/22 06:21:05;;;;;;;4.80;4.40;;;19.30;99.90;;;;;;5070427;28;20488;-83
2021/08/22 06:23:32;;;;;;;5.53;4.97;;;19.30;99.90;;;;;;5074291;28;20436;-81
2021/08/22 06:26:01;;;;;;;5.10;4.60;;;19.50;99.90;;;;;;5077178;28;20473;-83
2021/08/22 06:28:28;;;;;;;8.20;5.10;;;19.50;99.90;;;;;;5079830;28;20445;-85
2021/08/22 06:30:55;;;;;;;6.47;4.90;;;19.50;99.90;;;;;;5080231;28;20498;-85
2021/08/22 06:33:22;;;;;;;6.17;4.60;;;19.60;99.90;;;;;;5080041;28;20439;-85
2021/08/22 06:35:49;;;;;;;5.70;5.07;;;19.70;99.90;;;;;;5080145;28;20948;-83
2021/08/22 06:38:15;;;;;;;5.70;4.90;;;19.90;99.90;;;;;;5077254;28;20511;-82
2021/08/22 06:40:43;;;;;;;5.57;5.00;;;19.90;99.90;;;;;;5077197;28;20447;-80
2021/08/22 06:43:11;;;;;;;5.50;4.70;;;19.90;99.50;;;;;;5077866;28;20484;-81
2021/08/22 06:45:38;;;;;;;5.87;5.30;;;19.90;99.90;;;;;;5074175;28;20467;-80
2021/08/22 06:48:05;;;;;;;5.87;5.27;;;19.90;99.90;;;;;;5071647;28;20454;-80
2021/08/22 06:50:32;;;;;;;6.00;5.33;;;19.90;99.50;;;;;;5073663;28;20435;-82
2021/08/22 06:52:59;;;;;;;9.20;6.00;;;19.90;99.20;;;;;;5078886;28;20435;-82
2021/08/22 06:55:26;;;;;;;5.80;4.97;;;19.80;99.90;;;;;;5078986;28;20493;-83
2021/08/22 06:57:53;;;;;;;6.60;5.13;;;19.80;99.90;;;;;;5072095;28;20451;-81
2021/08/22 07:00:22;;;;;;;6.60;5.90;;;19.80;99.90;;;;;;5079421;28;20469;-84
2021/08/22 07:02:49;;;;;;;6.40;5.17;;;19.90;99.90;;;;;;5079140;28;20442;-82
2021/08/22 07:05:16;;;;;;;11.13;5.50;;;20.00;99.90;;;;;;5075058;28;20505;-82
2021/08/22 07:07:43;;;;;;;5.47;4.97;;;20.10;99.90;;;;;;5072910;28;20433;-81
2021/08/22 07:10:11;;;;;;;5.50;5.00;;;20.30;99.60;;;;;;5074510;28;20954;-81
2021/08/22 07:12:38;;;;;;;6.90;5.33;;;20.50;98.20;;;;;;5075324;28;20436;-80
2021/08/22 07:15:06;;;;;;;5.43;4.90;;;20.80;96.40;;;;;;5072773;28;20468;-82
2021/08/22 07:17:35;;;;;;;8.03;4.53;;;21.10;94.00;;;;;;5075209;28;20457;-82
2021/08/22 07:20:02;;;;;;;5.20;4.57;;;21.30;92.90;;;;;;5075042;28;20424;-82
2021/08/22 07:22:29;;;;;;;5.43;4.93;;;21.50;91.00;;;;;;5074840;28;20437;-81
2021/08/22 07:24:56;;;;;;;7.83;4.90;;;21.50;90.60;;;;;;5075427;28;20461;-82
2021/08/22 07:27:23;;;;;;;6.77;4.87;;;21.70;90.00;;;;;;5077050;28;20496;-82
2021/08/22 07:29:50;;;;;;;5.20;4.70;;;21.70;89.40;;;;;;5075092;28;20468;-82
2021/08/22 07:32:17;;;;;;;5.80;5.20;;;21.60;90.40;;;;;;5075232;28;20424;-82
2021/08/22 07:34:45;;;;;;;5.27;4.77;;;21.60;90.40;;;;;;5075808;28;20489;-81
2021/08/22 07:37:12;;;;;;;5.27;4.83;;;21.80;90.00;;;;;;5075988;28;20447;-81
2021/08/22 07:39:39;;;;;;;6.87;6.00;;;21.90;90.10;;;;;;5068881;28;20463;-80
2021/08/22 07:42:06;;;;;;;5.90;5.30;;;22.00;88.60;;;;;;5074289;28;20429;-82
2021/08/22 07:44:33;;;;;;;5.87;4.83;;;22.20;87.40;;;;;;5072336;28;20469;-80
2021/08/22 07:47:00;;;;;;;7.47;5.77;;;22.20;87.40;;;;;;5072691;28;20449;-80
2021/08/22 07:49:27;;;;;;;8.67;5.40;;;22.20;87.40;;;;;;5073715;28;20456;-81
2021/08/22 07:51:56;;;;;;;7.63;6.37;;;22.20;87.40;;;;;;5073938;28;20454;-81
2021/08/22 07:54:23;;;;;;;6.27;5.67;;;22.20;87.40;;;;;;5071397;28;20523;-82
2021/08/22 07:56:50;;;;;;;9.03;6.07;;;22.30;87.50;;;;;;5073208;28;20453;-79
2021/08/22 07:59:16;;;;;;;6.33;5.10;;;22.40;86.40;;;;;;5072742;28;20500;-81
2021/08/22 08:01:43;;;;;;;8.50;6.40;;;22.60;86.10;;;;;;5074843;28;20444;-84
2021/08/22 08:04:10;;;;;;;7.00;6.20;;;22.70;81.20;;;;;;5077306;28;20457;-80
2021/08/22 08:06:37;;;;;;;6.47;5.87;;;22.80;81.40;;;;;;5073617;28;20440;-84
2021/08/22 08:09:06;;;;;;;10.60;5.87;;;22.70;82.00;;;;;;5078384;28;20447;-83
2021/08/22 08:11:33;;;;;;;8.43;6.10;;;22.70;82.80;;;;;;5070870;28;20567;-80
2021/08/22 08:13:59;;;;;;;8.30;6.53;;;22.70;82.20;;;;;;5072948;28;20450;-80
2021/08/22 08:16:27;;;;;;;8.97;6.83;;;22.50;81.70;;;;;;5070485;28;20472;-83
2021/08/22 08:18:53;;;;;;;7.97;7.20;;;22.30;84.00;;;;;;5076701;28;20444;-83
2021/08/22 08:21:20;;;;;;;7.53;6.83;;;22.30;83.40;;;;;;5077347;28;20476;-84
2021/08/22 08:23:47;;;;;;;7.30;6.60;;;22.30;83.10;;;;;;5076080;28;20867;-81
2021/08/22 08:26:16;;;;;;;10.00;6.63;;;22.30;83.70;;;;;;5070097;28;20864;-81
2021/08/22 08:28:43;;;;;;;7.17;6.57;;;22.50;83.40;;;;;;5068743;28;20763;-81
2021/08/22 08:31:10;;;;;;;7.07;6.37;;;22.60;80.20;;;;;;5074092;28;20526;-81
2021/08/22 08:33:37;;;;;;;6.40;5.80;;;22.90;79.40;;;;;;5075777;28;20461;-81
2021/08/22 08:36:05;;;;;;;9.90;6.27;;;23.00;78.40;;;;;;5076164;28;20484;-84
2021/08/22 08:38:32;;;;;;;9.63;6.97;;;23.20;74.20;;;;;;5077854;28;20471;-85
2021/08/22 08:41:01;;;;;;;6.83;6.10;;;23.20;71.40;;;;;;5078052;28;20437;-85
2021/08/22 08:43:29;;;;;;;6.43;5.70;;;22.90;73.70;;;;;;5077866;28;20458;-85
2021/08/22 08:45:56;;;;;;;7.50;6.80;;;22.80;73.60;;;;;;5075580;28;20460;-80
2021/08/22 08:48:25;;;;;;;7.40;5.67;;;22.80;74.80;;;;;;5070372;28;20487;-81
2021/08/22 08:50:57;;;;;;;8.30;6.50;;;22.80;76.30;;;;;;5074068;28;20801;-82
2021/08/22 08:53:24;;;;;;;11.53;6.43;;;22.90;73.50;;;;;;5069239;28;20443;-81
2021/08/22 08:55:51;;;;;;;6.67;6.07;;;22.90;74.20;;;;;;5072775;28;20490;-84
2021/08/22 08:58:18;;;;;;;7.90;6.67;;;22.90;73.50;;;;;;5077525;28;20446;-84
2021/08/22 09:00:47;;;;;;;7.63;6.30;;;22.80;72.90;;;;;;5077149;28;20452;-83
2021/08/22 09:03:15;;;;;;;7.57;6.87;;;22.80;73.70;;;;;;5075953;28;20472;-83
2021/08/22 09:06:11;;;;;;;7.50;6.10;;;22.80;72.90;;;;;;5074830;28;20557;-83
2021/08/22 09:09:26;;;;;;;7.43;6.67;;;22.70;73.90;;;;;;5080190;28;20433;-83
2021/08/22 09:12:29;;;;;;;7.50;6.80;;;22.50;75.10;;;;;;5080168;28;20430;-82
2021/08/22 09:15:33;;;;;;;7.70;7.10;;;22.00;78.50;;;;;;5078149;28;20538;-80
2021/08/22 09:18:39;;;;;;;9.67;8.03;;;21.60;85.10;;;;;;5048763;28;20448;-85
2021/08/22 09:22:00;;;;;;;17.50;8.10;;;20.90;94.00;;;;;;5081503;28;20455;-87
2021/08/22 09:25:33;;;;;;;8.67;6.57;;;19.90;99.50;;;;;;5081554;28;20458;-87
2021/08/22 09:28:48;;;;;;;9.77;7.63;;;19.40;99.90;;;;;;5081030;28;20401;-87
2021/08/22 09:34:56;;;;;;;4.67;2.60;;;19.00;99.90;;;;;;5114604;27;20522;-85
2021/08/22 09:37:56;;;;;;;2.17;1.53;;;18.10;99.90;;;;;;5113079;28;20475;-83
2021/08/22 09:41:00;;;;;;;3.43;1.87;;;17.80;99.90;;;;;;5085477;28;20453;-84
2021/08/22 09:44:19;;;;;;;1.57;1.47;;;17.70;99.90;;;;;;5097528;28;21002;-83
2021/08/22 09:47:44;;;;;;;1.03;0.90;;;17.60;99.90;;;;;;5101350;28;20944;-85
2021/08/22 09:50:50;;;;;;;1.77;1.10;;;17.50;99.90;;;;;;5077198;28;20527;-87
2021/08/22 09:54:17;;;;;;;1.70;1.60;;;17.40;99.90;;;;;;5102807;28;20482;-87
2021/08/22 09:57:20;;;;;;;2.57;2.00;;;17.40;99.90;;;;;;5113360;28;20442;-87
2021/08/22 10:03:39;;;;;;;3.20;2.87;;;17.60;99.90;;;;;;5120587;27;20518;-85
2021/08/22 10:06:30;;;;;;;4.90;2.80;;;17.70;99.90;;;;;;5102394;28;20476;-84
2021/08/22 10:08:59;;;;;;;3.90;3.40;;;17.80;99.90;;;;;;5102645;28;20453;-84
2021/08/22 10:11:29;;;;;;;3.80;3.00;;;17.90;99.90;;;;;;5103852;28;20472;-83
2021/08/22 10:13:56;;;;;;;3.37;3.07;;;18.10;99.90;;;;;;5101008;28;20482;-84
2021/08/22 10:16:24;;;;;;;4.23;3.40;;;18.10;99.90;;;;;;5097568;28;20463;-84
2021/08/22 10:18:51;;;;;;;3.90;3.50;;;18.30;99.90;;;;;;5097317;28;20502;-82
2021/08/22 10:21:27;;;;;;;3.77;3.37;;;18.30;99.90;;;;;;5114877;28;20463;-85
2021/08/22 10:23:56;;;;;;;4.20;3.67;;;18.30;99.90;;;;;;5112003;28;20451;-84
2021/08/22 10:26:47;;;;;;;3.03;2.70;;;18.30;99.90;;;;;;5114828;28;20443;-85
2021/08/22 10:29:19;;;;;;;3.57;2.87;;;18.40;99.90;;;;;;5112721;28;20473;-83
2021/08/22 10:32:08;;;;;;;5.27;2.63;;;18.50;99.90;;;;;;5106196;28;20473;-83
2021/08/22 10:34:36;;;;;;;3.70;2.73;;;18.50;99.90;;;;;;5114718;28;20472;-83
2021/08/22 10:37:27;;;;;;;3.43;3.10;;;18.50;99.90;;;;;;5115084;28;20498;-83
2021/08/22 10:39:57;;;;;;;3.30;3.00;;;18.60;99.90;;;;;;5113248;28;20463;-82
2021/08/22 10:42:26;;;;;;;2.70;2.40;;;18.60;99.90;;;;;;5103411;28;20464;-84
2021/08/22 10:44:53;;;;;;;3.23;2.80;;;18.70;99.90;;;;;;5104147;28;20513;-85
2021/08/22 10:47:46;;;;;;;2.57;2.37;;;18.80;99.90;;;;;;5109192;28;20480;-84
2021/08/22 10:50:14;;;;;;;5.33;3.37;;;18.70;99.90;;;;;;5103472;28;20445;-83
2021/08/22 10:52:41;;;;;;;3.63;3.30;;;18.70;99.90;;;;;;5114023;28;20450;-84
2021/08/22 10:55:29;;;;;;;3.60;3.27;;;18.70;99.90;;;;;;5114355;28;20467;-84
2021/08/22 10:57:57;;;;;;;4.10;2.93;;;18.60;99.90;;;;;;5112404;28;20452;-84
2021/08/22 11:00:25;;;;;;;4.77;3.43;;;18.70;99.90;;;;;;5108209;28;20447;-85
2021/08/22 11:02:53;;;;;;;5.70;3.70;;;18.70;99.90;;;;;;5113343;28;20486;-85
2021/08/22 11:05:21;;;;;;;5.13;3.80;;;18.70;99.90;;;;;;5109005;28;20517;-83
2021/08/22 11:07:51;;;;;;;6.10;4.10;;;18.70;99.90;;;;;;5113043;28;20402;-84
2021/08/22 11:10:19;;;;;;;6.27;4.40;;;18.70;99.90;;;;;;5113770;28;20416;-85
2021/08/22 11:12:49;;;;;;;5.17;4.70;;;18.70;99.90;;;;;;5102928;28;20505;-85
2021/08/22 11:15:25;;;;;;;4.70;4.30;;;18.70;99.90;;;;;;5092171;28;20470;-84
2021/08/22 11:17:53;;;;;;;6.67;4.90;;;18.70;99.90;;;;;;5092779;28;20510;-83
2021/08/22 11:20:21;;;;;;;7.60;4.90;;;18.70;99.90;;;;;;5093185;28;20451;-83
2021/08/22 11:22:50;;;;;;;5.97;5.00;;;18.70;99.90;;;;;;5092418;28;20494;-84
2021/08/22 11:25:18;;;;;;;5.30;4.80;;;18.70;99.90;;;;;;5094114;28;20497;-84
2021/08/22 11:27:48;;;;;;;6.77;5.80;;;18.70;99.90;;;;;;5096496;28;20523;-83
2021/08/22 11:30:15;;;;;;;5.73;5.03;;;18.80;99.90;;;;;;5099492;28;20560;-85
2021/08/22 11:32:51;;;;;;;6.40;5.80;;;18.80;99.90;;;;;;5100170;28;20435;-83
2021/08/22 11:35:21;;;;;;;7.43;5.67;;;18.90;99.90;;;;;;5100311;28;20467;-83
2021/08/22 11:37:48;;;;;;;6.33;5.73;;;19.00;99.90;;;;;;5100196;28;20483;-82
2021/08/22 11:40:17;;;;;;;8.47;6.63;;;19.20;99.90;;;;;;5094438;28;20882;-83
2021/08/22 11:42:47;;;;;;;7.80;7.10;;;19.30;99.90;;;;;;5094908;28;20500;-83
2021/08/22 11:45:16;;;;;;;7.20;6.50;;;19.30;99.90;;;;;;5094711;28;20478;-83
2021/08/22 11:47:43;;;;;;;7.37;6.70;;;19.50;99.90;;;;;;5091027;28;20537;-82
2021/08/22 11:50:12;;;;;;;7.33;6.63;;;19.80;99.90;;;;;;5088090;28;20688;-82
2021/08/22 11:52:42;;;;;;;9.20;6.80;;;20.00;99.90;;;;;;5087976;28;20457;-82
2021/08/22 11:55:11;;;;;;;7.00;6.30;;;20.10;99.90;;;;;;5087204;28;20567;-82
2021/08/22 11:57:38;;;;;;;7.07;6.47;;;20.30;99.90;;;;;;5090826;28;20420;-82
2021/08/22 12:00:08;;;;;;;7.73;6.93;;;20.50;99.90;;;;;;5089505;28;20483;-82
2021/08/22 12:02:35;;;;;;;7.07;6.47;;;20.60;99.90;;;;;;5086963;28;20530;-82
2021/08/22 12:05:16;;;;;;;7.43;6.80;;;20.60;99.90;;;;;;5087490;28;20488;-82
2021/08/22 12:07:45;;;;;;;8.43;7.60;;;20.50;99.90;;;;;;5086357;28;20452;-81
2021/08/22 12:10:22;;;;;;;7.90;7.20;;;20.60;99.90;;;;;;5085198;28;20487;-83
2021/08/22 12:12:49;;;;;;;8.23;7.30;;;20.70;99.90;;;;;;5086783;28;20459;-82
2021/08/22 12:15:17;;;;;;;7.37;6.57;;;20.70;99.90;;;;;;5087296;28;20473;-82
2021/08/22 12:17:45;;;;;;;8.27;7.37;;;20.60;99.90;;;;;;5085832;28;20483;-83
2021/08/22 12:20:23;;;;;;;9.27;8.07;;;20.50;99.90;;;;;;5094688;28;20440;-82
2021/08/22 12:23:12;;;;;;;8.10;7.30;;;20.60;99.90;;;;;;5098932;28;20494;-82
2021/08/22 12:25:41;;;;;;;7.67;6.83;;;20.60;99.90;;;;;;5090501;28;20481;-81
2021/08/22 12:28:22;;;;;;;8.40;7.60;;;20.40;99.90;;;;;;5096140;28;20442;-81
2021/08/22 12:31:04;;;;;;;8.10;7.40;;;20.50;99.90;;;;;;5090793;28;20519;-82
2021/08/22 12:33:33;;;;;;;10.10;7.20;;;20.60;99.90;;;;;;5082067;28;20476;-82
2021/08/22 12:36:08;;;;;;;8.67;7.87;;;20.80;99.90;;;;;;5078407;28;20570;-81
2021/08/22 12:38:37;;;;;;;8.77;7.90;;;21.10;99.90;;;;;;5098224;28;20417;-82
2021/08/22 12:41:23;;;;;;;7.90;7.10;;;21.10;99.90;;;;;;5098623;28;20437;-81
2021/08/22 12:43:51;;;;;;;8.33;7.53;;;21.10;99.90;;;;;;5098744;28;20473;-81
2021/08/22 12:46:21;;;;;;;8.30;6.40;;;21.30;99.90;;;;;;5098693;28;20439;-82
2021/08/22 12:48:48;;;;;;;6.53;5.93;;;21.20;98.00;;;;;;5098599;28;20438;-83
2021/08/22 12:51:15;;;;;;;7.00;5.80;;;21.20;97.70;;;;;;5098532;28;20449;-82
2021/08/22 12:53:42;;;;;;;7.00;6.30;;;21.00;97.70;;;;;;5098560;28;20422;-82
2021/08/22 12:56:09;;;;;;;5.60;5.03;;;21.00;97.20;;;;;;5092336;28;20773;-81
2021/08/22 12:58:36;;;;;;;6.37;5.77;;;21.10;98.70;;;;;;5086920;28;20450;-82
2021/08/22 13:01:03;;;;;;;6.80;6.07;;;21.30;98.80;;;;;;5086160;28;20451;-81
2021/08/22 13:03:31;;;;;;;5.93;5.40;;;21.30;98.80;;;;;;5087239;28;20518;-80
2021/08/22 13:05:58;;;;;;;5.30;4.80;;;21.50;97.60;;;;;;5087682;28;20971;-80
2021/08/22 13:08:25;;;;;;;8.40;5.13;;;21.60;95.20;;;;;;5088524;28;20542;-81
2021/08/22 13:10:52;;;;;;;6.40;5.00;;;21.60;93.30;;;;;;5095837;28;20472;-82